Shinsei Maru — JK5560 — position and weather

sailwx.info

Track history (hours):
 
Tides and Currents Weather Stations Pressure Air Temp Water Temp Dewpoint Dewpoint Depression Visibility Wind Speed Wind Dir Waves Ship Positions

Shinsei Maru

Last reported at 2018-Feb-17 05:40 UTC. Time now 2018-Feb-19 06:07 UTC.
Position N 33°54' E 131°40'.

Length 52 m.

Type: Cargo ship. MMSI: 431401913.

Date/timePositionNaut miles runAvg speedWind from/ knotsBaromVisibWave heightAir tempDewpointWater temp
2018-Feb-17 05:40N 33°54' E 131°40'311.2
2018-Feb-17 05:26N 33°54' E 131°37'511.4
2018-Feb-17 04:59N 33°53' E 131°31'511.5
2018-Feb-17 04:30N 33°52' E 131°24'611.6
2018-Feb-17 04:00N 33°52' E 131°17'611.6
2018-Feb-17 03:30N 33°52' E 131°10'611.2
2018-Feb-17 03:00N 33°53' E 131°04'3 6.5
2018-Feb-17 02:29N 33°53' E 130°60'0 0.0
2018-Feb-17 01:59N 33°53' E 130°60'0 0.0
2018-Feb-17 01:29N 33°53' E 130°60'0 0.0
2018-Feb-17 00:59N 33°53' E 130°60'0 0.0
2018-Feb-17 00:29N 33°53' E 130°60'0 0.0
2018-Feb-16 23:59N 33°53' E 130°60'0 0.0
2018-Feb-16 23:29N 33°53' E 130°60'0 0.0
2018-Feb-16 22:59N 33°53' E 130°60'0 0.0
2018-Feb-16 22:29N 33°53' E 130°60'2 3.8
2018-Feb-16 22:00N 33°53' E 131°02'5 9.6
2018-Feb-16 21:30N 33°52' E 131°07'510.0
2018-Feb-16 21:00N 33°52' E 131°13'510.1
2018-Feb-16 20:30N 33°52' E 131°19'510.2
2018-Feb-16 19:59N 33°51' E 131°26'5 9.7
2018-Feb-16 19:30N 33°50' E 131°31'5 9.4
2018-Feb-16 19:00N 33°49' E 131°37'4 8.9
2018-Feb-16 18:30N 33°48' E 131°42'16 8.8
2018-Feb-16 16:44N 33°46' E 132°01'34 9.5
2018-Feb-16 13:09N 34°01' E 132°37'2 9.0
2018-Feb-16 12:59N 34°02' E 132°39'98 8.7
2018-Feb-16 01:43N 34°41' E 134°28'610.3
2018-Feb-16 01:09N 34°42' E 134°35'210.1
2018-Feb-16 00:57N 34°42' E 134°38'510.5
2018-Feb-16 00:28N 34°42' E 134°44'3 0.3
2018-Feb-15 13:58N 34°41' E 134°47'0 0.0
2018-Feb-15 12:40N 34°41' E 134°47'0 0.0
2018-Feb-15 12:10N 34°41' E 134°47'1 3.0
2018-Feb-15 11:57N 34°40' E 134°48'511.7
2018-Feb-15 11:30N 34°38' E 134°53'612.5
2018-Feb-15 11:00N 34°37' E 135°01'611.8
2018-Feb-15 10:30N 34°36' E 135°08'611.1
2018-Feb-15 09:59N 34°36' E 135°15'511.0
2018-Feb-15 09:30N 34°36' E 135°22'4 7.7
2018-Feb-15 08:59N 34°35' E 135°26'0 0.0
2018-Feb-15 08:29N 34°35' E 135°26'0 0.0
2018-Feb-15 07:59N 34°35' E 135°26'0 0.0
2018-Feb-15 07:29N 34°35' E 135°26'0 0.0
2018-Feb-15 06:55N 34°35' E 135°26'3 7.8
2018-Feb-15 06:30N 34°36' E 135°23'510.1
2018-Feb-15 06:00N 34°38' E 135°17'4 7.2
2018-Feb-15 05:30N 34°40' E 135°13'0 0.0
2018-Feb-15 05:00N 34°40' E 135°13'0 0.0
2018-Feb-15 04:30N 34°40' E 135°13'0 0.0
2018-Feb-15 04:00N 34°40' E 135°13'0 0.0
2018-Feb-15 03:30N 34°40' E 135°13'0 0.0
2018-Feb-15 03:00N 34°40' E 135°13'0 0.0
2018-Feb-15 02:30N 34°40' E 135°13'0 0.0
2018-Feb-15 02:00N 34°40' E 135°13'0 0.1
2018-Feb-15 01:30N 34°40' E 135°13'3 6.2
2018-Feb-15 01:00N 34°38' E 135°16'5 9.1
2018-Feb-15 00:30N 34°36' E 135°10'5 9.1
2018-Feb-15 00:00N 34°35' E 135°05'3 6.7
2018-Feb-14 23:30N 34°37' E 135°02'2 4.6
2018-Feb-14 23:00N 34°37' E 134°59'4 7.2
2018-Feb-14 22:30N 34°36' E 134°55'3 6.2
2018-Feb-14 22:00N 34°34' E 134°52'4 8.0
2018-Feb-14 21:30N 34°32' E 134°47'4 8.8
2018-Feb-14 21:00N 34°30' E 134°43'5 9.3
2018-Feb-14 20:27N 34°28' E 134°37'9810.1
2018-Feb-14 10:47N 34°03' E 132°42'310.5
2018-Feb-14 10:30N 34°02' E 132°39'  
2018-Feb-07 05:45N 34°42' E 134°36'  
Track history (hours):
 
Tides and Currents Weather Stations Pressure Air Temp Water Temp Dewpoint Dewpoint Depression Visibility Wind Speed Wind Dir Waves Ship Positions

Shinsei Maru

Last reported at 2018-Feb-17 05:40 UTC. Time now 2018-Feb-19 06:07 UTC.
Position N 33°54' E 131°40'.

Length 52 m.

Type: Cargo ship. MMSI: 431401913.

Date/timePositionNaut miles runAvg speedWind from/ knotsBaromVisibWave heightAir tempDewpointWater temp
2018-Feb-17 05:40N 33°54' E 131°40'311.2
2018-Feb-17 05:26N 33°54' E 131°37'511.4
2018-Feb-17 04:59N 33°53' E 131°31'511.5
2018-Feb-17 04:30N 33°52' E 131°24'611.6
2018-Feb-17 04:00N 33°52' E 131°17'611.6
2018-Feb-17 03:30N 33°52' E 131°10'611.2
2018-Feb-17 03:00N 33°53' E 131°04'3 6.5
2018-Feb-17 02:29N 33°53' E 130°60'0 0.0
2018-Feb-17 01:59N 33°53' E 130°60'0 0.0
2018-Feb-17 01:29N 33°53' E 130°60'0 0.0
2018-Feb-17 00:59N 33°53' E 130°60'0 0.0
2018-Feb-17 00:29N 33°53' E 130°60'0 0.0
2018-Feb-16 23:59N 33°53' E 130°60'0 0.0
2018-Feb-16 23:29N 33°53' E 130°60'0 0.0
2018-Feb-16 22:59N 33°53' E 130°60'0 0.0
2018-Feb-16 22:29N 33°53' E 130°60'2 3.8
2018-Feb-16 22:00N 33°53' E 131°02'5 9.6
2018-Feb-16 21:30N 33°52' E 131°07'510.0
2018-Feb-16 21:00N 33°52' E 131°13'510.1
2018-Feb-16 20:30N 33°52' E 131°19'510.2
2018-Feb-16 19:59N 33°51' E 131°26'5 9.7
2018-Feb-16 19:30N 33°50' E 131°31'5 9.4
2018-Feb-16 19:00N 33°49' E 131°37'4 8.9
2018-Feb-16 18:30N 33°48' E 131°42'16 8.8
2018-Feb-16 16:44N 33°46' E 132°01'34 9.5
2018-Feb-16 13:09N 34°01' E 132°37'2 9.0
2018-Feb-16 12:59N 34°02' E 132°39'98 8.7
2018-Feb-16 01:43N 34°41' E 134°28'610.3
2018-Feb-16 01:09N 34°42' E 134°35'210.1
2018-Feb-16 00:57N 34°42' E 134°38'510.5
2018-Feb-16 00:28N 34°42' E 134°44'3 0.3
2018-Feb-15 13:58N 34°41' E 134°47'0 0.0
2018-Feb-15 12:40N 34°41' E 134°47'0 0.0
2018-Feb-15 12:10N 34°41' E 134°47'1 3.0
2018-Feb-15 11:57N 34°40' E 134°48'511.7
2018-Feb-15 11:30N 34°38' E 134°53'612.5
2018-Feb-15 11:00N 34°37' E 135°01'611.8
2018-Feb-15 10:30N 34°36' E 135°08'611.1
2018-Feb-15 09:59N 34°36' E 135°15'511.0
2018-Feb-15 09:30N 34°36' E 135°22'4 7.7
2018-Feb-15 08:59N 34°35' E 135°26'0 0.0
2018-Feb-15 08:29N 34°35' E 135°26'0 0.0
2018-Feb-15 07:59N 34°35' E 135°26'0 0.0
2018-Feb-15 07:29N 34°35' E 135°26'0 0.0
2018-Feb-15 06:55N 34°35' E 135°26'3 7.8
2018-Feb-15 06:30N 34°36' E 135°23'510.1
2018-Feb-15 06:00N 34°38' E 135°17'4 7.2
2018-Feb-15 05:30N 34°40' E 135°13'0 0.0
2018-Feb-15 05:00N 34°40' E 135°13'0 0.0
2018-Feb-15 04:30N 34°40' E 135°13'0 0.0
2018-Feb-15 04:00N 34°40' E 135°13'0 0.0
2018-Feb-15 03:30N 34°40' E 135°13'0 0.0
2018-Feb-15 03:00N 34°40' E 135°13'0 0.0
2018-Feb-15 02:30N 34°40' E 135°13'0 0.0
2018-Feb-15 02:00N 34°40' E 135°13'0 0.1
2018-Feb-15 01:30N 34°40' E 135°13'3 6.2
2018-Feb-15 01:00N 34°38' E 135°16'5 9.1
2018-Feb-15 00:30N 34°36' E 135°10'5 9.1
2018-Feb-15 00:00N 34°35' E 135°05'3 6.7
2018-Feb-14 23:30N 34°37' E 135°02'2 4.6
2018-Feb-14 23:00N 34°37' E 134°59'4 7.2
2018-Feb-14 22:30N 34°36' E 134°55'3 6.2
2018-Feb-14 22:00N 34°34' E 134°52'4 8.0
2018-Feb-14 21:30N 34°32' E 134°47'4 8.8
2018-Feb-14 21:00N 34°30' E 134°43'5 9.3
2018-Feb-14 20:27N 34°28' E 134°37'9810.1
2018-Feb-14 10:47N 34°03' E 132°42'310.5
2018-Feb-14 10:30N 34°02' E 132°39'  
2018-Feb-07 05:45N 34°42' E 134°36'  

Dump ship's entire track history